createdAt,value
2022-12-09T00:01:05.198Z,37
2022-12-09T00:16:04.746Z,39
2022-12-09T00:31:05.561Z,42
2022-12-09T00:46:05.312Z,49
2022-12-09T01:01:04.897Z,42
2022-12-09T01:16:05.272Z,44
2022-12-09T01:31:04.983Z,45
2022-12-09T01:46:05.446Z,37
2022-12-09T02:01:04.673Z,37
2022-12-09T02:16:05.279Z,33
2022-12-09T02:31:05.217Z,31
2022-12-09T02:46:04.802Z,28
2022-12-09T03:01:05.169Z,27
2022-12-09T03:16:05.536Z,27
2022-12-09T03:31:04.592Z,30
2022-12-09T03:46:05.025Z,34
2022-12-09T04:01:05.004Z,36
2022-12-09T04:16:04.775Z,28
2022-12-09T04:31:05.232Z,28
2022-12-09T04:46:05.057Z,26
2022-12-09T05:01:04.679Z,34
2022-12-09T05:16:06.891Z,27
2022-12-09T05:31:05.621Z,33
2022-12-09T05:46:05.543Z,37
2022-12-09T06:01:04.915Z,44
2022-12-09T06:16:04.634Z,40
2022-12-09T06:31:05.267Z,39
2022-12-09T06:46:05.976Z,43
2022-12-09T07:01:06.152Z,49
2022-12-09T07:16:05.664Z,38
2022-12-09T07:31:04.689Z,36
2022-12-09T07:46:05.185Z,39
2022-12-09T08:01:05.128Z,46
2022-12-09T08:16:05.254Z,51
2022-12-09T08:31:04.698Z,47
2022-12-09T08:46:05.525Z,44
2022-12-09T09:01:05.651Z,39
2022-12-09T09:16:05.618Z,36
2022-12-09T09:31:05.428Z,38
2022-12-09T09:46:06.076Z,33
2022-12-09T10:01:05.528Z,29
2022-12-09T10:16:05.490Z,26
2022-12-09T10:31:05.528Z,22
2022-12-09T10:46:17.677Z,27
2022-12-09T11:01:06.080Z,43
2022-12-09T11:16:06.124Z,40
2022-12-09T11:31:28.159Z,19
2022-12-09T11:46:04.990Z,29
2022-12-09T12:01:05.442Z,40
2022-12-09T12:16:05.405Z,41
2022-12-09T12:31:04.462Z,40
2022-12-09T12:46:04.964Z,44
2022-12-09T13:01:05.360Z,35
2022-12-09T13:16:05.347Z,36
2022-12-09T13:31:05.439Z,42
2022-12-09T13:46:05.260Z,31
2022-12-09T14:01:05.386Z,27
2022-12-09T14:16:04.837Z,41
2022-12-09T14:31:08.316Z,37
2022-12-09T14:46:05.083Z,24
2022-12-09T15:01:05.370Z,24
2022-12-09T15:16:05.012Z,26
2022-12-09T15:31:04.547Z,30
2022-12-09T15:46:04.530Z,36
2022-12-09T16:01:04.468Z,35
2022-12-09T16:16:04.969Z,36
2022-12-09T16:31:05.638Z,30
2022-12-09T16:46:04.927Z,28
2022-12-09T17:01:05.553Z,27
2022-12-09T17:16:04.794Z,37
2022-12-09T17:31:05.333Z,42
2022-12-09T17:46:05.587Z,43
2022-12-09T18:01:04.725Z,42
2022-12-09T18:16:05.528Z,42
2022-12-09T18:31:04.913Z,44
2022-12-09T18:46:05.252Z,44
2022-12-09T19:01:05.289Z,44
2022-12-09T19:16:05.355Z,46
2022-12-09T19:31:04.832Z,43
2022-12-09T19:46:05.293Z,43
2022-12-09T20:01:05.117Z,54
2022-12-09T20:16:05.027Z,49
2022-12-09T20:31:04.857Z,44
2022-12-09T20:46:05.511Z,41
2022-12-09T21:01:05.075Z,35
2022-12-09T21:16:05.457Z,34
2022-12-09T21:31:05.348Z,32
2022-12-09T21:46:05.675Z,31
2022-12-09T22:01:04.727Z,29
2022-12-09T22:16:03.645Z,29
2022-12-09T22:31:05.562Z,25
2022-12-09T22:46:05.098Z,26
2022-12-09T23:01:05.311Z,24
2022-12-09T23:16:04.664Z,26
2022-12-09T23:31:04.684Z,26
2022-12-09T23:46:07.726Z,27
